Pico Truncado, Argentina
Current Conditions -  °F | °C
As of 12:00 AM on Tuesday 27 Jan 2015 (Local Time) from SAVC Reporting Station
Clear Clear  
Wind Chill: 66°   Ceiling: Unl
Heat Index: 66°   Visibility: 6mi
Dew Point: 39°   Wind: 35mph
Humidity: 37%   Direction: 290°WNW
Pressure: 29.53"   Gusts: 51mph
Location:  46.8°S, 67.97°W
Report Text: SAVC 270300Z 29030G44KT CAVOK 19/04 Q1000
Loading
Personal Weather Stations






























Interactive Weather Map New forecast layout! Learn more

10-Day Weather Forecast

Advertisements
Track Severe Weather on mobile